createdAt,value
2019-05-29T00:02:21.069Z,3.43
2019-05-29T00:12:22.078Z,3.87
2019-05-29T00:22:23.094Z,3.70
2019-05-29T00:32:24.205Z,3.77
2019-05-29T00:42:25.327Z,4.10
2019-05-29T00:52:26.619Z,4.23
2019-05-29T01:02:27.739Z,4.10
2019-05-29T01:12:29.041Z,4.60
2019-05-29T01:22:30.321Z,4.83
2019-05-29T01:32:31.386Z,5.07
2019-05-29T01:42:32.446Z,5.53
2019-05-29T01:52:33.458Z,4.60
2019-05-29T02:02:34.580Z,5.97
2019-05-29T02:12:35.712Z,5.70
2019-05-29T02:22:36.770Z,5.60
2019-05-29T02:32:38.022Z,6.27
2019-05-29T02:42:39.024Z,6.17
2019-05-29T02:52:40.560Z,7.10
2019-05-29T03:02:41.670Z,6.40
2019-05-29T03:12:43.195Z,6.70
2019-05-29T03:22:44.308Z,6.00
2019-05-29T03:32:48.298Z,6.23
2019-05-29T03:42:48.396Z,6.93
2019-05-29T03:52:49.609Z,5.53
2019-05-29T04:02:50.610Z,6.77
2019-05-29T04:12:51.639Z,5.50
2019-05-29T04:22:54.694Z,5.33
2019-05-29T04:32:55.719Z,5.23
2019-05-29T04:42:56.721Z,5.23
2019-05-29T04:52:57.741Z,5.30
2019-05-29T05:02:58.756Z,5.50
2019-05-29T05:12:59.988Z,5.40
2019-05-29T05:23:01.398Z,5.07
2019-05-29T05:33:02.833Z,4.83
2019-05-29T05:43:03.961Z,5.73
2019-05-29T05:53:05.041Z,5.50
2019-05-29T06:03:06.393Z,5.10
2019-05-29T06:13:07.538Z,4.90
2019-05-29T06:23:08.575Z,4.90
2019-05-29T06:33:09.729Z,5.23
2019-05-29T06:43:20.068Z,4.67
2019-05-29T06:53:22.318Z,4.57
2019-05-29T07:03:23.426Z,4.60
2019-05-29T07:13:24.668Z,5.13
2019-05-29T07:23:25.729Z,6.10
2019-05-29T07:33:27.439Z,6.30
2019-05-29T07:43:28.569Z,6.60
2019-05-29T07:53:29.882Z,6.43
2019-05-29T08:03:32.007Z,6.13
2019-05-29T08:13:33.017Z,6.20
2019-05-29T08:23:34.142Z,6.37
2019-05-29T08:33:35.148Z,5.77
2019-05-29T08:43:36.197Z,6.10
2019-05-29T08:53:37.230Z,5.67
2019-05-29T09:03:38.257Z,5.43
2019-05-29T09:13:39.313Z,5.43
2019-05-29T09:23:40.904Z,5.30
2019-05-29T09:33:42.539Z,4.03
2019-05-29T09:43:57.689Z,3.90
2019-05-29T09:53:47.056Z,4.23
2019-05-29T10:03:48.304Z,3.70
2019-05-29T10:13:49.346Z,3.17
2019-05-29T10:23:50.532Z,3.70
2019-05-29T10:33:52.405Z,3.40
2019-05-29T10:43:53.496Z,3.30
2019-05-29T10:53:57.514Z,3.80
2019-05-29T11:03:57.741Z,3.50
2019-05-29T11:13:58.768Z,3.17
2019-05-29T11:23:59.858Z,2.90
2019-05-29T11:34:00.921Z,2.20
2019-05-29T11:44:03.193Z,1.77
2019-05-29T11:54:04.446Z,1.77
2019-05-29T12:04:22.871Z,1.90
2019-05-29T12:14:09.445Z,2.37
2019-05-29T12:24:10.567Z,1.87
2019-05-29T12:34:18.898Z,2.10
2019-05-29T12:44:14.479Z,2.47
2019-05-29T12:54:15.543Z,2.60
2019-05-29T13:04:16.567Z,2.23
2019-05-29T13:14:17.614Z,2.27
2019-05-29T13:24:19.106Z,1.77
2019-05-29T13:34:21.364Z,1.33
2019-05-29T13:44:22.494Z,1.00
2019-05-29T13:54:23.546Z,1.10
2019-05-29T14:04:26.676Z,1.00
2019-05-29T14:14:27.701Z,0.80
2019-05-29T14:24:30.382Z,1.23
2019-05-29T14:34:31.789Z,1.13
2019-05-29T14:44:32.951Z,1.47
2019-05-29T14:54:41.847Z,1.30
2019-05-29T15:04:38.729Z,1.37
2019-05-29T15:14:39.873Z,1.20
2019-05-29T15:24:58.845Z,1.40
2019-05-29T15:34:43.891Z,1.80
2019-05-29T15:44:44.931Z,1.90
2019-05-29T15:54:46.015Z,2.23
2019-05-29T16:04:48.341Z,2.37
2019-05-29T16:14:49.698Z,2.00
2019-05-29T16:24:50.761Z,2.00
2019-05-29T16:34:51.883Z,1.80
2019-05-29T16:55:07.357Z,2.10
2019-05-29T17:05:08.789Z,1.67
2019-05-29T17:15:15.068Z,1.97
2019-05-29T17:25:16.809Z,2.20
2019-05-29T17:35:18.982Z,2.73
2019-05-29T17:45:23.944Z,2.80
2019-05-29T17:55:24.904Z,2.67
2019-05-29T18:05:26.754Z,2.90
2019-05-29T18:15:28.020Z,2.97
2019-05-29T18:25:29.058Z,2.80
2019-05-29T18:35:30.308Z,2.70
2019-05-29T18:45:31.447Z,2.60
2019-05-29T18:55:33.148Z,2.77
2019-05-29T19:05:34.256Z,2.60
2019-05-29T19:15:35.270Z,2.90
2019-05-29T19:25:36.286Z,3.10
2019-05-29T19:35:37.411Z,2.80
2019-05-29T19:45:38.544Z,3.40
2019-05-29T19:55:39.608Z,3.40
2019-05-29T20:05:40.627Z,4.70
2019-05-29T20:15:41.845Z,4.23
2019-05-29T20:25:42.832Z,4.47
2019-05-29T20:35:43.859Z,4.60
2019-05-29T20:45:44.865Z,5.20
2019-05-29T20:55:45.991Z,8.87
2019-05-29T21:05:47.126Z,9.10
2019-05-29T21:15:48.126Z,6.83
2019-05-29T21:25:49.160Z,7.13
2019-05-29T21:35:50.188Z,8.07
2019-05-29T21:45:51.185Z,7.27
2019-05-29T21:55:52.245Z,7.20
2019-05-29T22:05:53.477Z,7.37
2019-05-29T22:15:56.780Z,8.23
2019-05-29T22:25:59.404Z,6.40
2019-05-29T22:36:01.767Z,5.70
2019-05-29T22:46:03.478Z,6.33
2019-05-29T22:56:04.639Z,6.47
2019-05-29T23:06:05.880Z,5.43
2019-05-29T23:16:06.997Z,5.23
2019-05-29T23:26:08.111Z,5.90
2019-05-29T23:36:09.918Z,5.47
2019-05-29T23:46:11.070Z,5.70
2019-05-29T23:56:12.285Z,6.37
